Time;durP1;ratioP1;P1;durP2;ratioP2;P2;SDS_P1;SDS_P2;PMS_P1;PMS_P2;Temp;Humidity;BMP_temperature;BMP_pressure;BME280_temperature;BME280_humidity;BME280_pressure;Samples;Min_cycle;Max_cycle;Signal;HPM_P1;HPM_P2
2021/10/11 00:00:29;;;;;;;54.40;34.38;;;;;;;12.95;76.31;99987.03;5033872;28;20067;-76
2021/10/11 00:02:54;;;;;;;49.00;34.30;;;;;;;12.68;76.29;99948.75;5033776;28;20451;-76
2021/10/11 00:05:21;;;;;;;57.15;34.80;;;;;;;12.87;76.13;99973.06;5033691;28;20036;-76
2021/10/11 00:07:46;;;;;;;43.40;29.05;;;;;;;12.68;75.75;99940.81;5033490;28;20032;-77
2021/10/11 00:10:18;;;;;;;43.65;27.50;;;;;;;12.66;75.79;99948.09;5033522;28;20026;-76
2021/10/11 00:12:44;;;;;;;42.58;27.73;;;;;;;13.07;75.91;100015.75;5033470;28;20083;-77
2021/10/11 00:15:10;;;;;;;36.97;25.40;;;;;;;13.04;76.18;99998.38;5033505;28;20131;-76
2021/10/11 00:17:35;;;;;;;38.25;24.27;;;;;;;13.07;76.09;99997.19;5033518;28;20032;-77
2021/10/11 00:20:01;;;;;;;31.77;22.10;;;;;;;13.09;76.10;99996.00;5033612;28;20025;-77
2021/10/11 00:22:26;;;;;;;33.58;21.25;;;;;;;12.87;75.96;99931.47;5033308;28;20021;-77
2021/10/11 00:24:51;;;;;;;29.33;19.33;;;;;;;12.97;75.86;99932.03;5033486;28;20033;-76
2021/10/11 00:27:17;;;;;;;28.38;20.30;;;;;;;12.72;76.05;99872.38;5032875;28;20028;-77
2021/10/11 00:29:43;;;;;;;30.90;20.75;;;;;;;13.08;76.22;99898.94;5033244;28;20411;-76
2021/10/11 00:32:08;;;;;;;32.53;18.20;;;;;;;12.59;75.84;99854.44;5033090;28;20036;-76
2021/10/11 00:34:37;;;;;;;24.00;16.98;;;;;;;12.99;76.16;99911.47;5033162;28;20029;-76
2021/10/11 00:37:05;;;;;;;21.30;14.43;;;;;;;12.73;75.98;99872.19;5032962;28;20029;-77
2021/10/11 00:39:31;;;;;;;27.15;14.93;;;;;;;13.02;75.97;99918.22;5033231;28;20498;-77
2021/10/11 00:41:57;;;;;;;28.02;14.73;;;;;;;13.01;76.08;99917.41;5033117;28;20036;-76
2021/10/11 00:44:23;;;;;;;27.98;15.90;;;;;;;13.00;76.22;99928.19;5033014;28;20028;-76
2021/10/11 00:46:49;;;;;;;24.15;15.35;;;;;;;12.74;76.20;99891.56;5032953;28;20100;-77
2021/10/11 00:49:14;;;;;;;21.42;13.43;;;;;;;12.81;75.97;99900.41;5032857;28;20091;-76
2021/10/11 00:51:40;;;;;;;20.55;14.75;;;;;;;12.47;75.59;99858.56;5032652;28;20099;-76
2021/10/11 00:54:06;;;;;;;25.60;14.57;;;;;;;13.01;76.17;99935.94;5033023;28;20026;-77
2021/10/11 00:56:31;;;;;;;22.33;14.32;;;;;;;13.04;76.10;99937.41;5032512;28;20028;-76
2021/10/11 00:58:57;;;;;;;21.63;14.88;;;;;;;13.00;76.09;99933.50;5032708;28;20017;-76
2021/10/11 01:01:23;;;;;;;22.10;15.02;;;;;;;12.49;76.13;99853.09;5032852;28;20525;-77
2021/10/11 01:03:48;;;;;;;21.33;13.65;;;;;;;12.62;76.21;99877.91;5032721;28;20494;-76
2021/10/11 01:06:14;;;;;;;26.05;17.23;;;;;;;12.85;75.92;99911.47;5032500;28;20092;-77
2021/10/11 01:08:40;;;;;;;20.15;15.07;;;;;;;13.07;76.05;99937.03;5032401;28;20402;-77
2021/10/11 01:11:05;;;;;;;21.98;15.10;;;;;;;12.73;76.15;99888.09;5032546;28;20021;-76
2021/10/11 01:13:31;;;;;;;26.55;15.35;;;;;;;13.05;76.31;99931.09;5032499;28;20414;-76
2021/10/11 01:15:56;;;;;;;19.35;14.23;;;;;;;13.01;75.78;99911.28;5014492;28;20442;-76
2021/10/11 01:18:22;;;;;;;21.35;16.33;;;;;;;13.13;75.98;99932.84;5014795;28;20052;-76
2021/10/11 01:20:47;;;;;;;23.98;17.27;;;;;;;13.13;76.06;99927.53;5032276;28;20079;-77
2021/10/11 01:23:13;;;;;;;28.08;15.75;;;;;;;13.09;76.03;99929.72;5032432;28;20091;-76
2021/10/11 01:25:38;;;;;;;23.60;15.52;;;;;;;12.98;75.94;99903.69;5032180;28;20029;-76
2021/10/11 01:28:04;;;;;;;27.90;15.55;;;;;;;12.77;76.02;99867.34;5032401;28;20018;-77
2021/10/11 01:30:29;;;;;;;26.77;14.80;;;;;;;13.17;75.94;99924.34;5032152;28;20036;-76
2021/10/11 01:32:55;;;;;;;22.15;14.68;;;;;;;13.18;76.04;99926.00;5032091;28;20049;-76
2021/10/11 01:35:21;;;;;;;24.23;15.27;;;;;;;13.19;76.08;99924.16;5032149;28;20052;-77
2021/10/11 01:37:47;;;;;;;25.48;15.07;;;;;;;12.93;75.80;99882.22;5031240;28;20029;-76
2021/10/11 01:40:14;;;;;;;25.08;15.13;;;;;;;13.16;75.68;99924.50;5031989;28;20029;-76
2021/10/11 01:42:39;;;;;;;24.10;15.07;;;;;;;12.99;75.55;99892.09;5032023;28;20025;-76
2021/10/11 01:45:06;;;;;;;21.85;13.57;;;;;;;12.98;75.66;99893.91;5032096;28;20032;-76
2021/10/11 01:47:31;;;;;;;19.45;13.70;;;;;;;13.02;75.53;99894.38;5032003;28;20028;-77
2021/10/11 01:49:57;;;;;;;22.38;12.15;;;;;;;12.74;75.63;99838.56;5031917;28;20025;-76
2021/10/11 01:52:24;;;;;;;21.95;13.25;;;;;;;13.10;75.85;99896.09;5031857;28;20079;-76
2021/10/11 01:54:49;;;;;;;25.08;14.10;;;;;;;13.20;75.99;99902.78;5031775;28;20032;-76
2021/10/11 01:57:16;;;;;;;23.33;13.65;;;;;;;13.19;75.65;99902.97;5031550;28;20018;-76
2021/10/11 01:59:42;;;;;;;22.38;13.45;;;;;;;13.19;75.64;99901.13;5031559;28;20510;-76
2021/10/11 02:02:08;;;;;;;21.10;14.52;;;;;;;12.87;75.76;99849.34;5031684;28;20026;-76
2021/10/11 02:04:33;;;;;;;27.70;14.85;;;;;;;13.20;75.83;99886.03;5031496;28;20024;-76
2021/10/11 02:06:59;;;;;;;15.75;12.57;;;;;;;13.19;75.57;99895.81;5031671;28;20510;-76
2021/10/11 02:09:24;;;;;;;16.90;11.43;;;;;;;12.81;75.79;99823.56;5031592;28;20104;-76
2021/10/11 02:11:50;;;;;;;20.38;12.02;;;;;;;13.20;75.48;99884.22;5031414;28;20104;-76
2021/10/11 02:14:15;;;;;;;16.75;11.82;;;;;;;12.95;75.76;99864.31;5031601;28;20029;-76
2021/10/11 02:16:41;;;;;;;19.50;12.27;;;;;;;13.19;75.64;99887.88;5013508;28;20037;-77
2021/10/11 02:19:06;;;;;;;19.98;13.35;;;;;;;12.83;75.71;99828.69;5031368;28;20089;-76
2021/10/11 02:21:32;;;;;;;22.83;13.95;;;;;;;12.82;75.42;99821.75;5031161;28;20504;-76
2021/10/11 02:23:58;;;;;;;17.02;12.07;;;;;;;13.09;75.68;99855.50;5031183;28;20053;-76
2021/10/11 02:26:23;;;;;;;23.20;13.18;;;;;;;12.91;75.18;99810.84;5031086;28;20555;-76
2021/10/11 02:28:50;;;;;;;20.45;12.18;;;;;;;13.27;75.67;99857.78;5031168;28;20014;-76
2021/10/11 02:31:17;;;;;;;19.33;11.48;;;;;;;12.72;75.72;99771.69;5031357;28;20029;-76
2021/10/11 02:33:44;;;;;;;18.95;12.13;;;;;;;13.22;75.95;99860.97;5031203;28;20021;-76
2021/10/11 02:36:10;;;;;;;18.40;11.38;;;;;;;13.22;75.75;99860.97;5013321;28;20401;-77
2021/10/11 02:38:35;;;;;;;23.88;12.05;;;;;;;13.14;75.55;99850.47;5031135;28;20026;-76
2021/10/11 02:41:00;;;;;;;21.30;12.70;;;;;;;13.05;75.76;99827.72;5031396;28;20021;-76
2021/10/11 02:43:26;;;;;;;17.02;12.20;;;;;;;12.84;75.26;99774.69;5031265;28;20418;-76
2021/10/11 02:45:52;;;;;;;19.95;12.07;;;;;;;13.01;75.98;99802.59;5031059;28;20060;-76
2021/10/11 02:48:18;;;;;;;23.00;13.80;;;;;;;13.26;75.97;99850.81;5030900;28;20092;-76
2021/10/11 02:50:43;;;;;;;21.48;11.85;;;;;;;13.01;75.79;99814.03;5035244;28;20497;-76
2021/10/11 02:53:09;;;;;;;17.08;12.88;;;;;;;13.26;75.62;99854.28;5035141;28;20017;-76
2021/10/11 02:55:34;;;;;;;20.35;12.20;;;;;;;13.28;75.40;99857.59;5035213;28;20037;-76
2021/10/11 02:57:59;;;;;;;21.60;12.30;;;;;;;13.29;75.71;99839.84;5034960;28;20078;-75
2021/10/11 03:00:25;;;;;;;27.17;12.77;;;;;;;13.16;75.46;99816.63;5017019;28;20071;-76
2021/10/11 03:02:50;;;;;;;25.38;11.77;;;;;;;13.11;75.51;99803.13;5017181;28;20533;-76
2021/10/11 03:05:16;;;;;;;21.05;12.43;;;;;;;12.88;75.63;99762.69;5035005;28;20040;-77
2021/10/11 03:07:41;;;;;;;19.15;11.18;;;;;;;13.20;75.54;99817.94;5034831;28;20017;-76
2021/10/11 03:10:07;;;;;;;26.13;14.32;;;;;;;12.87;75.74;99772.47;5034979;28;20029;-77
2021/10/11 03:12:35;;;;;;;22.25;12.75;;;;;;;13.14;75.86;99802.75;5034958;28;20057;-76
2021/10/11 03:15:00;;;;;;;17.63;11.60;;;;;;;13.10;75.46;99798.00;5034576;28;20501;-76
2021/10/11 03:17:26;;;;;;;17.58;10.43;;;;;;;12.97;75.54;99778.31;5034345;28;20108;-76
2021/10/11 03:19:51;;;;;;;20.23;11.95;;;;;;;12.76;75.89;99746.47;5034517;28;20021;-76
2021/10/11 03:22:17;;;;;;;22.30;12.15;;;;;;;13.08;75.87;99798.19;5034475;28;20574;-76
2021/10/11 03:24:42;;;;;;;17.10;11.88;;;;;;;13.27;76.16;99837.38;5016721;28;20041;-76
2021/10/11 03:27:07;;;;;;;15.27;11.73;;;;;;;13.23;76.04;99819.38;5034501;28;20027;-76
2021/10/11 03:29:33;;;;;;;17.33;11.68;;;;;;;13.16;75.54;99806.03;5034378;28;20033;-77
2021/10/11 03:31:58;;;;;;;18.85;12.15;;;;;;;13.34;75.75;99825.00;5034179;28;20060;-76
2021/10/11 03:34:23;;;;;;;18.70;12.45;;;;;;;12.97;75.43;99778.31;5034272;28;20025;-76
2021/10/11 03:36:49;;;;;;;18.95;12.10;;;;;;;13.34;75.39;99825.00;5034167;28;20026;-76
2021/10/11 03:39:14;;;;;;;26.88;13.40;;;;;;;13.34;75.67;99817.06;5034415;28;20025;-76
2021/10/11 03:41:40;;;;;;;16.60;11.88;;;;;;;13.12;75.84;99778.25;5034248;28;20425;-76
2021/10/11 03:44:06;;;;;;;18.42;11.82;;;;;;;13.33;75.68;99809.28;5034126;28;20025;-76
2021/10/11 03:46:34;;;;;;;18.27;12.13;;;;;;;13.32;75.92;99813.75;5016124;28;20038;-76
2021/10/11 03:49:01;;;;;;;20.58;12.95;;;;;;;12.86;75.46;99746.16;5033833;28;20025;-76
2021/10/11 03:51:26;;;;;;;25.05;13.50;;;;;;;13.23;75.98;99796.34;5033758;28;20021;-76
2021/10/11 03:53:52;;;;;;;19.60;13.02;;;;;;;12.69;76.03;99711.97;5016017;28;20017;-77
2021/10/11 03:56:17;;;;;;;16.83;12.45;;;;;;;13.29;75.75;99800.88;5033924;28;20096;-75
2021/10/11 03:58:42;;;;;;;16.27;12.32;;;;;;;13.29;76.13;99803.53;5033918;28;20490;-76
2021/10/11 04:01:08;;;;;;;19.90;12.98;;;;;;;12.92;75.86;99734.81;5032960;28;20100;-76
2021/10/11 04:03:34;;;;;;;21.23;14.98;;;;;;;13.23;76.27;99787.56;5015830;28;20108;-77
2021/10/11 04:05:59;;;;;;;24.98;13.77;;;;;;;12.94;76.34;99740.75;5033813;28;20470;-77
2021/10/11 04:08:34;;;;;;;18.42;12.80;;;;;;;13.27;75.82;99786.16;5033896;28;20083;-77
2021/10/11 04:11:21;;;;;;;20.13;13.40;;;;;;;13.13;76.22;99761.34;5033685;28;20028;-76
2021/10/11 04:13:47;;;;;;;21.45;13.20;;;;;;;12.71;76.28;99701.19;5015735;28;20025;-77
2021/10/11 04:16:13;;;;;;;19.17;12.88;;;;;;;12.97;75.69;99737.72;5033161;28;20080;-76
2021/10/11 04:18:38;;;;;;;21.73;11.88;;;;;;;12.96;76.28;99739.56;5033338;28;20032;-77
2021/10/11 04:21:04;;;;;;;19.70;12.98;;;;;;;13.08;76.10;99770.88;5033584;28;20017;-76
2021/10/11 04:23:30;;;;;;;20.42;13.65;;;;;;;13.31;75.86;99796.22;5033626;28;20101;-77
2021/10/11 04:25:56;;;;;;;18.95;13.48;;;;;;;13.21;76.21;99798.34;5033280;28;20049;-76
2021/10/11 04:28:22;;;;;;;23.77;13.88;;;;;;;12.99;76.36;99743.66;5033246;28;20040;-76
2021/10/11 04:30:48;;;;;;;17.83;12.05;;;;;;;12.81;76.19;99722.88;5033092;28;20022;-76
2021/10/11 04:33:14;;;;;;;17.63;13.18;;;;;;;12.76;75.92;99711.22;5032987;28;20021;-77
2021/10/11 04:35:40;;;;;;;20.73;13.25;;;;;;;12.74;76.34;99700.81;5033229;28;20031;-77
2021/10/11 04:38:05;;;;;;;19.67;12.65;;;;;;;13.34;76.13;99789.72;5033021;28;20014;-76
2021/10/11 04:40:31;;;;;;;18.98;12.90;;;;;;;13.36;76.08;99793.00;5015449;28;20380;-76
2021/10/11 04:42:57;;;;;;;20.65;12.80;;;;;;;13.34;76.31;99795.84;5033103;28;20029;-76
2021/10/11 04:45:28;;;;;;;18.60;12.30;;;;;;;13.30;76.24;99781.31;5033449;28;20021;-77
2021/10/11 04:47:58;;;;;;;22.65;15.07;;;;;;;12.81;76.21;99693.75;5015169;28;20048;-75
2021/10/11 04:50:24;;;;;;;24.30;13.38;;;;;;;13.40;76.25;99785.50;5015194;28;20555;-77
2021/10/11 04:52:50;;;;;;;21.27;13.70;;;;;;;13.17;76.29;99745.91;5033046;28;20028;-77
2021/10/11 04:55:15;;;;;;;26.45;17.58;;;;;;;13.33;76.22;99785.41;5032729;28;20410;-77
2021/10/11 04:57:41;;;;;;;32.00;23.83;;;;;;;13.37;76.28;99818.50;5032634;28;20417;-77
2021/10/11 05:00:07;;;;;;;28.23;23.08;;;;;;;12.98;76.54;99739.38;5032614;28;20036;-77
2021/10/11 05:02:32;;;;;;;30.05;20.63;;;;;;;13.35;76.40;99804.59;5032703;28;20025;-76
2021/10/11 05:04:57;;;;;;;25.27;21.10;;;;;;;13.38;76.55;99806.06;5032656;28;20024;-76
2021/10/11 05:07:23;;;;;;;30.63;20.77;;;;;;;13.35;76.41;99794.00;5032424;28;20457;-76
2021/10/11 05:09:48;;;;;;;29.05;20.92;;;;;;;13.32;76.94;99778.47;5014654;28;20049;-77
2021/10/11 05:12:13;;;;;;;26.08;21.20;;;;;;;12.89;76.57;99724.59;5032434;28;20084;-77
2021/10/11 05:14:39;;;;;;;24.13;19.55;;;;;;;13.37;77.22;99799.94;5014736;28;20025;-76
2021/10/11 05:17:04;;;;;;;26.30;19.58;;;;;;;13.29;77.23;99771.72;5031859;28;20040;-76
2021/10/11 05:19:30;;;;;;;26.40;18.67;;;;;;;13.39;77.01;99783.88;5031927;28;20017;-77
2021/10/11 05:21:55;;;;;;;27.85;20.67;;;;;;;13.40;77.02;99786.31;5014485;28;20055;-77
2021/10/11 05:24:25;;;;;;;23.92;19.25;;;;;;;13.40;77.16;99788.16;5032026;28;20022;-76
2021/10/11 05:26:52;;;;;;;26.60;19.58;;;;;;;13.35;77.17;99770.13;5032079;28;20104;-76
2021/10/11 05:29:18;;;;;;;23.80;18.90;;;;;;;13.23;76.83;99759.22;5032198;28;20053;-77
2021/10/11 05:31:43;;;;;;;18.67;16.20;;;;;;;13.19;76.81;99750.00;5031994;28;20057;-76
2021/10/11 05:34:09;;;;;;;20.20;16.35;;;;;;;13.44;76.74;99803.50;5031332;28;20438;-76
2021/10/11 05:36:34;;;;;;;22.88;17.08;;;;;;;13.47;76.95;99789.03;5031791;28;20021;-77
2021/10/11 05:39:00;;;;;;;22.52;17.83;;;;;;;13.35;76.68;99768.31;5031899;28;20086;-77
2021/10/11 05:41:25;;;;;;;18.95;14.73;;;;;;;13.46;76.78;99780.25;5031748;28;20112;-76
2021/10/11 05:43:50;;;;;;;22.95;16.45;;;;;;;13.49;76.95;99789.66;5031522;28;20029;-76
2021/10/11 05:46:16;;;;;;;20.20;16.35;;;;;;;13.30;77.15;99760.09;5031445;28;20025;-77
2021/10/11 05:48:41;;;;;;;18.73;15.38;;;;;;;13.48;76.99;99783.53;5031306;28;20068;-77
2021/10/11 05:51:07;;;;;;;18.42;15.35;;;;;;;13.19;77.20;99731.44;5031863;28;20010;-77
2021/10/11 05:53:32;;;;;;;14.93;12.68;;;;;;;12.99;77.01;99719.81;5031973;28;20136;-76
2021/10/11 05:55:58;;;;;;;14.35;12.77;;;;;;;13.19;77.10;99736.75;5013702;28;20095;-76
2021/10/11 05:58:23;;;;;;;17.88;14.05;;;;;;;13.39;77.03;99767.97;5013502;28;20021;-77
2021/10/11 06:00:49;;;;;;;17.88;14.55;;;;;;;13.18;77.13;99739.59;5030970;28;20025;-76
2021/10/11 06:03:14;;;;;;;15.27;13.63;;;;;;;13.39;76.95;99770.59;5031189;28;20410;-77
2021/10/11 06:05:40;;;;;;;18.63;14.32;;;;;;;13.14;77.03;99731.16;5031575;28;20071;-77
2021/10/11 06:08:05;;;;;;;14.90;13.32;;;;;;;13.14;77.26;99712.59;5031290;28;20017;-76
2021/10/11 06:10:31;;;;;;;13.65;12.20;;;;;;;13.43;76.90;99748.00;5031178;28;20021;-77
2021/10/11 06:12:56;;;;;;;13.68;12.13;;;;;;;13.36;76.83;99748.72;5031079;28;20089;-76
2021/10/11 06:15:21;;;;;;;16.77;11.98;;;;;;;13.18;77.10;99729.81;5030598;28;20049;-76
2021/10/11 06:17:47;;;;;;;12.55;10.40;;;;;;;13.46;77.21;99790.06;5018149;28;20022;-76
2021/10/11 06:20:13;;;;;;;12.90;11.20;;;;;;;13.46;77.20;99784.75;5028541;28;20040;-77
2021/10/11 06:22:39;;;;;;;12.27;10.85;;;;;;;13.12;77.35;99750.91;5030643;28;20083;-77
2021/10/11 06:25:05;;;;;;;15.50;11.63;;;;;;;13.44;77.56;99808.00;5029706;28;20025;-77
2021/10/11 06:27:31;;;;;;;14.98;11.43;;;;;;;13.29;77.48;99792.94;5030679;28;20415;-76
2021/10/11 06:29:58;;;;;;;15.27;11.73;;;;;;;13.01;77.43;99733.69;5031064;28;20104;-76
2021/10/11 06:32:23;;;;;;;12.00;9.80;;;;;;;13.36;77.78;99766.47;5012931;28;20071;-76
2021/10/11 06:34:48;;;;;;;18.05;13.60;;;;;;;13.30;77.86;99743.38;5013262;28;20025;-76
2021/10/11 06:37:14;;;;;;;13.95;12.02;;;;;;;13.09;77.56;99699.09;5030727;28;20057;-76
2021/10/11 06:39:39;;;;;;;14.32;12.10;;;;;;;12.98;77.78;99679.22;5030340;28;20029;-77
2021/10/11 06:42:05;;;;;;;13.43;11.35;;;;;;;13.22;77.88;99725.75;5027492;28;20351;-76
2021/10/11 06:44:31;;;;;;;11.50;10.20;;;;;;;13.46;77.85;99764.34;5022711;28;20407;-77
2021/10/11 06:46:57;;;;;;;10.25;9.25;;;;;;;13.14;77.90;99706.47;5031226;28;20060;-77
2021/10/11 06:49:22;;;;;;;13.48;11.23;;;;;;;13.49;77.73;99763.97;5030619;28;20506;-77
2021/10/11 06:51:48;;;;;;;11.00;9.70;;;;;;;13.47;77.21;99770.47;5030841;28;20525;-76
2021/10/11 06:54:13;;;;;;;11.50;10.30;;;;;;;12.93;77.32;99705.47;5030423;28;20037;-77
2021/10/11 06:56:39;;;;;;;9.60;7.93;;;;;;;13.39;77.59;99784.69;5030566;28;20033;-77
2021/10/11 06:59:04;;;;;;;10.82;9.73;;;;;;;13.21;77.63;99766.53;5030694;28;20044;-76
2021/10/11 07:01:29;;;;;;;10.32;9.32;;;;;;;12.95;77.79;99716.72;5030923;28;20096;-77
2021/10/11 07:03:55;;;;;;;11.27;9.55;;;;;;;12.82;77.66;99684.78;5030150;28;20512;-76
2021/10/11 07:06:21;;;;;;;14.73;11.52;;;;;;;13.33;77.50;99761.56;5029194;28;20035;-77
2021/10/11 07:08:47;;;;;;;11.80;10.55;;;;;;;13.34;77.83;99761.34;5030396;28;20029;-76
2021/10/11 07:11:13;;;;;;;17.48;13.95;;;;;;;13.36;77.98;99750.56;5030352;28;20052;-77
2021/10/11 07:13:38;;;;;;;15.95;13.45;;;;;;;13.10;77.70;99702.56;5030350;28;20043;-77
2021/10/11 07:16:05;;;;;;;20.38;16.60;;;;;;;12.90;77.89;99674.06;5012768;28;20041;-77
2021/10/11 07:18:33;;;;;;;23.33;18.83;;;;;;;13.38;77.70;99761.81;5030012;28;20025;-78
2021/10/11 07:20:58;;;;;;;27.52;21.67;;;;;;;13.16;77.49;99693.84;5030486;28;20028;-77
2021/10/11 07:23:24;;;;;;;27.20;22.27;;;;;;;13.22;77.79;99711.69;5012974;28;20029;-80
2021/10/11 07:25:49;;;;;;;18.45;16.52;;;;;;;13.02;77.79;99684.97;5030637;28;20024;-80
2021/10/11 07:28:15;;;;;;;19.55;15.13;;;;;;;13.44;77.88;99749.63;5030855;28;20017;-80
2021/10/11 07:30:40;;;;;;;14.48;13.02;;;;;;;12.86;77.59;99656.91;5030800;28;20021;-80
2021/10/11 07:33:07;;;;;;;16.23;14.50;;;;;;;13.15;77.94;99695.69;5030441;28;20040;-80
2021/10/11 07:35:33;;;;;;;16.40;13.93;;;;;;;13.36;78.26;99732.81;5030367;28;20029;-80
2021/10/11 07:37:59;;;;;;;14.50;12.60;;;;;;;13.08;78.22;99664.84;5033624;28;20030;-81
2021/10/11 07:40:24;;;;;;;15.02;12.85;;;;;;;13.51;77.94;99726.63;5034160;28;20557;-80
2021/10/11 07:42:50;;;;;;;13.85;10.50;;;;;;;13.51;77.71;99730.09;5033772;28;20041;-80
2021/10/11 07:45:16;;;;;;;14.50;10.68;;;;;;;13.13;77.93;99678.31;5033733;28;20022;-80
2021/10/11 07:47:41;;;;;;;13.02;9.93;;;;;;;13.02;77.90;99648.69;5033422;28;20406;-80
2021/10/11 07:50:07;;;;;;;11.88;10.68;;;;;;;13.51;78.28;99723.97;5033407;28;20022;-80
2021/10/11 07:52:33;;;;;;;15.27;11.10;;;;;;;13.51;78.38;99730.09;5016440;28;20104;-80
2021/10/11 07:54:58;;;;;;;12.10;10.05;;;;;;;13.36;78.23;99689.56;5033955;28;20060;-80
2021/10/11 07:57:23;;;;;;;10.55;9.45;;;;;;;13.53;78.14;99717.47;5033053;28;20037;-80
2021/10/11 07:59:49;;;;;;;13.63;11.88;;;;;;;13.08;77.86;99651.56;5033544;28;20025;-80
2021/10/11 08:02:15;;;;;;;12.80;11.45;;;;;;;13.14;78.26;99656.13;5015382;28;20443;-80
2021/10/11 08:04:41;;;;;;;15.05;12.27;;;;;;;13.46;78.26;99727.22;5015440;28;20021;-80
2021/10/11 08:07:06;;;;;;;18.98;15.07;;;;;;;13.56;78.24;99730.34;5020464;28;20029;-80
2021/10/11 08:09:32;;;;;;;17.83;14.95;;;;;;;13.08;78.46;99672.78;5033289;28;20021;-80
2021/10/11 08:11:57;;;;;;;15.98;14.02;;;;;;;13.25;78.64;99722.72;5033244;28;20110;-80
2021/10/11 08:14:22;;;;;;;17.73;15.25;;;;;;;13.53;79.09;99777.66;5015253;28;20383;-80
2021/10/11 08:16:48;;;;;;;13.60;11.35;;;;;;;13.22;78.76;99727.59;5033016;28;20064;-80
2021/10/11 08:19:13;;;;;;;13.23;11.82;;;;;;;13.12;79.29;99714.63;5032836;28;20028;-80
2021/10/11 08:21:39;;;;;;;15.38;12.48;;;;;;;13.01;78.93;99665.59;5033122;28;20028;-80
2021/10/11 08:24:05;;;;;;;15.88;13.90;;;;;;;13.53;78.81;99746.66;5032982;28;20449;-80
2021/10/11 08:26:34;;;;;;;18.17;16.27;;;;;;;13.58;79.13;99754.84;5033288;28;20433;-80
2021/10/11 08:29:01;;;;;;;17.33;15.52;;;;;;;13.60;78.81;99733.44;5032966;28;20021;-80
2021/10/11 08:31:27;;;;;;;18.02;15.48;;;;;;;13.63;78.83;99717.94;5014530;28;20033;-80
2021/10/11 08:33:52;;;;;;;15.70;14.02;;;;;;;13.67;78.68;99711.25;5032252;28;20124;-80
2021/10/11 08:36:17;;;;;;;14.65;13.15;;;;;;;13.55;78.62;99680.13;5032455;28;20568;-81
2021/10/11 08:38:43;;;;;;;16.98;13.35;;;;;;;13.75;78.71;99712.09;5015248;28;20017;-80
2021/10/11 08:41:10;;;;;;;15.90;14.25;;;;;;;13.78;78.58;99707.22;5033056;28;20021;-82
2021/10/11 08:43:37;;;;;;;16.38;14.65;;;;;;;13.35;78.46;99630.41;5032083;28;20437;-81
2021/10/11 08:46:04;;;;;;;19.60;17.55;;;;;;;13.64;78.87;99678.97;5015259;28;20567;-81
2021/10/11 08:48:33;;;;;;;22.17;19.88;;;;;;;13.50;78.50;99643.59;5032634;28;20013;-83
2021/10/11 08:51:00;;;;;;;24.80;22.30;;;;;;;13.32;78.36;99608.75;5033082;28;20395;-83
2021/10/11 08:53:25;;;;;;;25.83;23.13;;;;;;;13.80;78.54;99668.06;5032511;28;20498;-83
2021/10/11 08:55:51;;;;;;;27.40;24.63;;;;;;;13.73;78.67;99648.63;5014825;28;20021;-83
2021/10/11 08:58:17;;;;;;;28.95;25.83;;;;;;;13.12;78.69;99546.78;5033273;28;20026;-82
2021/10/11 09:00:42;;;;;;;27.95;24.92;;;;;;;13.54;78.51;99605.03;5031647;28;20036;-83
2021/10/11 09:03:09;;;;;;;22.52;19.45;;;;;;;13.85;78.94;99655.00;5032176;28;20088;-81
2021/10/11 09:05:37;;;;;;;27.88;24.30;;;;;;;13.88;79.19;99667.06;5014816;28;20083;-82
2021/10/11 09:08:05;;;;;;;29.73;23.85;;;;;;;13.27;78.78;99571.41;5032538;28;20022;-83
2021/10/11 09:10:32;;;;;;;23.48;20.98;;;;;;;13.91;78.79;99679.94;5031398;28;20037;-83
2021/10/11 09:12:59;;;;;;;24.33;21.73;;;;;;;13.81;78.88;99656.41;5032333;28;20083;-84
2021/10/11 09:15:29;;;;;;;24.42;21.35;;;;;;;13.92;79.03;99669.13;5031343;28;20116;-84
2021/10/11 09:18:04;;;;;;;20.42;17.83;;;;;;;13.85;78.85;99647.03;5031704;28;20033;-84
2021/10/11 09:20:30;;;;;;;19.92;16.02;;;;;;;13.50;78.63;99589.72;5014185;28;20026;-83
2021/10/11 09:22:58;;;;;;;17.70;15.90;;;;;;;13.49;78.81;99575.63;5031907;28;20025;-84
2021/10/11 09:25:37;;;;;;;21.70;17.88;;;;;;;13.94;78.82;99634.44;5032009;28;20091;-77
2021/10/11 09:28:06;;;;;;;19.85;16.67;;;;;;;13.98;79.21;99635.69;5031010;28;20052;-77
2021/10/11 09:30:39;;;;;;;22.52;19.52;;;;;;;13.99;78.92;99634.66;5031946;28;20514;-76
2021/10/11 09:33:12;;;;;;;19.85;17.75;;;;;;;14.01;78.89;99632.63;5014086;28;20405;-77
2021/10/11 09:35:39;;;;;;;20.95;18.90;;;;;;;14.02;79.08;99638.75;5016215;28;20117;-77
2021/10/11 09:38:19;;;;;;;19.42;17.42;;;;;;;13.62;78.99;99582.84;5031406;28;20116;-77
2021/10/11 09:40:44;;;;;;;20.80;18.33;;;;;;;13.65;79.20;99583.25;5031549;28;20061;-76
2021/10/11 09:43:18;;;;;;;17.67;15.88;;;;;;;13.88;78.99;99627.25;5031654;28;20049;-77
2021/10/11 09:45:44;;;;;;;20.50;18.13;;;;;;;13.87;79.07;99622.97;5031609;28;20017;-76
2021/10/11 09:48:11;;;;;;;16.98;15.18;;;;;;;14.03;79.06;99641.22;5031435;28;20021;-77
2021/10/11 09:50:38;;;;;;;16.50;14.75;;;;;;;14.04;78.89;99650.00;5013805;28;20056;-76
2021/10/11 09:53:05;;;;;;;15.57;13.98;;;;;;;14.02;79.07;99647.53;5031753;28;20029;-76
2021/10/11 09:55:32;;;;;;;19.30;15.63;;;;;;;13.65;79.12;99579.78;5030793;28;20041;-75
2021/10/11 09:57:59;;;;;;;16.75;14.95;;;;;;;13.64;79.07;99580.81;5030661;28;20489;-76
2021/10/11 10:00:24;;;;;;;17.15;15.25;;;;;;;13.88;79.09;99630.72;5012999;28;20025;-77
2021/10/11 10:02:53;;;;;;;21.25;18.27;;;;;;;14.05;79.00;99651.63;5031304;28;20025;-77
2021/10/11 10:05:27;;;;;;;17.30;15.52;;;;;;;13.62;78.82;99575.69;5013820;28;20029;-77
2021/10/11 10:07:55;;;;;;;17.85;15.95;;;;;;;14.04;79.05;99636.72;5013000;28;20014;-77
2021/10/11 10:10:24;;;;;;;14.00;12.52;;;;;;;14.05;79.06;99641.00;5031179;28;20100;-77
2021/10/11 10:12:51;;;;;;;11.30;9.80;;;;;;;13.75;78.87;99579.44;5013212;28;20528;-76
2021/10/11 10:15:32;;;;;;;12.60;11.38;;;;;;;14.08;78.47;99628.16;5031099;28;20049;-75
2021/10/11 10:18:09;;;;;;;11.57;10.25;;;;;;;14.07;78.74;99618.56;5027799;28;20053;-76
2021/10/11 10:20:37;;;;;;;12.20;10.85;;;;;;;14.07;78.86;99623.03;5030787;28;20576;-77
2021/10/11 10:23:03;;;;;;;10.73;9.63;;;;;;;14.09;78.84;99611.22;5013190;28;20446;-76
2021/10/11 10:25:29;;;;;;;10.93;9.77;;;;;;;13.58;79.05;99525.88;5031068;28;20584;-77
2021/10/11 10:28:11;;;;;;;12.80;10.93;;;;;;;14.11;78.81;99600.38;5030823;28;20045;-77
2021/10/11 10:30:37;;;;;;;16.42;14.55;;;;;;;14.14;79.23;99608.81;5030903;28;20030;-76
2021/10/11 10:33:06;;;;;;;23.55;20.95;;;;;;;14.09;78.95;99589.97;5030057;28;20520;-77
2021/10/11 10:35:37;;;;;;;24.50;21.40;;;;;;;14.20;79.23;99597.38;5029889;28;20553;-77
2021/10/11 10:38:02;;;;;;;28.67;24.10;;;;;;;14.15;79.03;99581.25;5022978;28;20079;-77
2021/10/11 10:40:31;;;;;;;26.73;23.35;;;;;;;14.25;79.01;99594.13;5012884;28;20025;-77
2021/10/11 10:43:04;;;;;;;25.52;21.33;;;;;;;13.96;78.92;99548.28;5029852;28;20517;-77
2021/10/11 10:45:32;;;;;;;21.90;19.52;;;;;;;14.27;78.52;99582.28;5030564;28;20053;-76
2021/10/11 10:47:58;;;;;;;25.08;22.40;;;;;;;14.08;78.36;99545.84;5030199;28;20044;-75
2021/10/11 10:50:24;;;;;;;25.77;23.10;;;;;;;14.13;78.54;99545.28;5030848;28;20494;-76
2021/10/11 10:52:58;;;;;;;27.08;24.15;;;;;;;14.28;78.46;99570.66;5013017;28;20031;-76
2021/10/11 10:55:24;;;;;;;20.92;18.48;;;;;;;14.28;78.68;99572.47;5030257;28;20040;-76
2021/10/11 10:58:11;;;;;;;20.00;17.02;;;;;;;14.27;78.87;99569.00;5030428;28;20029;-77
2021/10/11 11:00:40;;;;;;;16.83;14.10;;;;;;;14.04;78.79;99527.88;5030601;28;20034;-77
2021/10/11 11:03:10;;;;;;;14.40;12.90;;;;;;;13.99;78.77;99505.41;5012983;28;20153;-76
2021/10/11 11:05:36;;;;;;;19.13;17.27;;;;;;;14.23;78.65;99535.91;5012945;28;20135;-76
2021/10/11 11:08:02;;;;;;;17.30;15.60;;;;;;;14.35;78.62;99557.38;5030519;28;20517;-76
2021/10/11 11:10:31;;;;;;;15.35;13.77;;;;;;;14.36;78.38;99558.19;5032683;28;20030;-76
2021/10/11 11:12:59;;;;;;;15.52;13.93;;;;;;;14.36;78.47;99555.53;5034464;28;20060;-76